sensor_id;sensor_type;location;lat;lon;timestamp;temperature;humidity
78297;DHT22;67555;47.660;19.622;2023-11-19T00:00:28;1.50;75.50
78297;DHT22;67555;47.660;19.622;2023-11-19T00:02:53;1.50;75.70
78297;DHT22;67555;47.660;19.622;2023-11-19T00:05:19;1.40;75.80
78297;DHT22;67555;47.660;19.622;2023-11-19T00:07:45;1.40;76.00
78297;DHT22;67555;47.660;19.622;2023-11-19T00:10:14;1.30;76.30
78297;DHT22;67555;47.660;19.622;2023-11-19T00:12:45;1.30;76.50
78297;DHT22;67555;47.660;19.622;2023-11-19T00:15:12;1.40;76.70
78297;DHT22;67555;47.660;19.622;2023-11-19T00:17:41;1.40;76.50
78297;DHT22;67555;47.660;19.622;2023-11-19T00:20:14;1.60;76.10
78297;DHT22;67555;47.660;19.622;2023-11-19T00:22:42;1.70;75.70
78297;DHT22;67555;47.660;19.622;2023-11-19T00:25:08;1.90;75.40
78297;DHT22;67555;47.660;19.622;2023-11-19T00:27:37;2.00;74.90
78297;DHT22;67555;47.660;19.622;2023-11-19T00:30:11;2.00;74.70
78297;DHT22;67555;47.660;19.622;2023-11-19T00:32:37;1.90;74.80
78297;DHT22;67555;47.660;19.622;2023-11-19T00:35:05;1.80;75.10
78297;DHT22;67555;47.660;19.622;2023-11-19T00:37:31;1.80;75.30
78297;DHT22;67555;47.660;19.622;2023-11-19T00:39:57;1.90;75.40
78297;DHT22;67555;47.660;19.622;2023-11-19T00:42:23;2.00;75.20
78297;DHT22;67555;47.660;19.622;2023-11-19T00:44:50;2.10;74.90
78297;DHT22;67555;47.660;19.622;2023-11-19T00:47:16;2.20;74.60
78297;DHT22;67555;47.660;19.622;2023-11-19T00:49:41;2.20;74.30
78297;DHT22;67555;47.660;19.622;2023-11-19T00:52:08;2.30;74.00
78297;DHT22;67555;47.660;19.622;2023-11-19T00:54:34;2.30;73.90
78297;DHT22;67555;47.660;19.622;2023-11-19T00:56:59;2.30;73.80
78297;DHT22;67555;47.660;19.622;2023-11-19T00:59:27;2.40;73.70
78297;DHT22;67555;47.660;19.622;2023-11-19T01:01:54;2.40;73.60
78297;DHT22;67555;47.660;19.622;2023-11-19T01:04:20;2.30;73.70
78297;DHT22;67555;47.660;19.622;2023-11-19T01:06:46;2.30;73.80
78297;DHT22;67555;47.660;19.622;2023-11-19T01:09:11;2.30;73.80
78297;DHT22;67555;47.660;19.622;2023-11-19T01:11:37;2.40;73.80
78297;DHT22;67555;47.660;19.622;2023-11-19T01:14:03;2.40;73.60
78297;DHT22;67555;47.660;19.622;2023-11-19T01:16:28;2.30;73.60
78297;DHT22;67555;47.660;19.622;2023-11-19T01:18:55;2.30;73.80
78297;DHT22;67555;47.660;19.622;2023-11-19T01:21:21;2.20;74.00
78297;DHT22;67555;47.660;19.622;2023-11-19T01:23:47;2.30;74.00
78297;DHT22;67555;47.660;19.622;2023-11-19T01:26:13;2.30;73.70
78297;DHT22;67555;47.660;19.622;2023-11-19T01:28:39;2.30;73.60
78297;DHT22;67555;47.660;19.622;2023-11-19T01:31:15;2.30;73.40
78297;DHT22;67555;47.660;19.622;2023-11-19T01:33:40;2.30;73.20
78297;DHT22;67555;47.660;19.622;2023-11-19T01:36:07;2.20;73.30
78297;DHT22;67555;47.660;19.622;2023-11-19T01:38:34;2.20;73.50
78297;DHT22;67555;47.660;19.622;2023-11-19T01:41:00;2.10;73.60
78297;DHT22;67555;47.660;19.622;2023-11-19T01:43:38;2.10;73.80
78297;DHT22;67555;47.660;19.622;2023-11-19T01:46:07;2.20;73.70
78297;DHT22;67555;47.660;19.622;2023-11-19T01:48:36;2.20;73.60
78297;DHT22;67555;47.660;19.622;2023-11-19T01:51:05;2.20;73.60
78297;DHT22;67555;47.660;19.622;2023-11-19T01:53:32;2.20;73.50
78297;DHT22;67555;47.660;19.622;2023-11-19T01:56:00;2.10;73.70
78297;DHT22;67555;47.660;19.622;2023-11-19T01:58:26;2.00;73.80
78297;DHT22;67555;47.660;19.622;2023-11-19T02:00:52;1.80;74.40
78297;DHT22;67555;47.660;19.622;2023-11-19T02:03:19;1.70;74.70
78297;DHT22;67555;47.660;19.622;2023-11-19T02:05:48;1.80;74.80
78297;DHT22;67555;47.660;19.622;2023-11-19T02:08:15;1.90;74.50
78297;DHT22;67555;47.660;19.622;2023-11-19T02:10:40;2.00;74.40
78297;DHT22;67555;47.660;19.622;2023-11-19T02:13:06;1.90;74.30
78297;DHT22;67555;47.660;19.622;2023-11-19T02:15:33;2.00;74.50
78297;DHT22;67555;47.660;19.622;2023-11-19T02:18:26;2.00;74.40
78297;DHT22;67555;47.660;19.622;2023-11-19T02:20:59;2.00;74.30
78297;DHT22;67555;47.660;19.622;2023-11-19T02:23:26;2.00;74.60
78297;DHT22;67555;47.660;19.622;2023-11-19T02:26:20;2.10;74.40
78297;DHT22;67555;47.660;19.622;2023-11-19T02:28:48;2.00;74.20
78297;DHT22;67555;47.660;19.622;2023-11-19T02:31:14;1.90;74.60
78297;DHT22;67555;47.660;19.622;2023-11-19T02:33:40;1.90;74.70
78297;DHT22;67555;47.660;19.622;2023-11-19T02:36:07;2.00;74.70
78297;DHT22;67555;47.660;19.622;2023-11-19T02:38:34;2.00;74.50
78297;DHT22;67555;47.660;19.622;2023-11-19T02:41:02;2.00;74.60
78297;DHT22;67555;47.660;19.622;2023-11-19T02:43:30;2.00;74.50
78297;DHT22;67555;47.660;19.622;2023-11-19T02:46:02;1.90;74.60
78297;DHT22;67555;47.660;19.622;2023-11-19T02:48:28;1.90;74.90
78297;DHT22;67555;47.660;19.622;2023-11-19T02:50:53;1.90;75.00
78297;DHT22;67555;47.660;19.622;2023-11-19T02:53:19;2.00;74.80
78297;DHT22;67555;47.660;19.622;2023-11-19T02:55:47;2.00;74.40
78297;DHT22;67555;47.660;19.622;2023-11-19T02:58:15;2.10;74.10
78297;DHT22;67555;47.660;19.622;2023-11-19T03:00:49;2.10;73.90
78297;DHT22;67555;47.660;19.622;2023-11-19T03:03:27;2.10;73.70
78297;DHT22;67555;47.660;19.622;2023-11-19T03:06:04;2.10;73.60
78297;DHT22;67555;47.660;19.622;2023-11-19T03:08:30;2.10;73.50
78297;DHT22;67555;47.660;19.622;2023-11-19T03:10:56;2.10;73.40
78297;DHT22;67555;47.660;19.622;2023-11-19T03:13:22;2.10;73.30
78297;DHT22;67555;47.660;19.622;2023-11-19T03:15:47;2.10;73.20
78297;DHT22;67555;47.660;19.622;2023-11-19T03:18:13;2.10;73.30
78297;DHT22;67555;47.660;19.622;2023-11-19T03:20:39;2.10;73.20
78297;DHT22;67555;47.660;19.622;2023-11-19T03:23:05;2.10;73.20
78297;DHT22;67555;47.660;19.622;2023-11-19T03:25:32;2.10;73.10
78297;DHT22;67555;47.660;19.622;2023-11-19T03:28:02;2.10;73.20
78297;DHT22;67555;47.660;19.622;2023-11-19T03:30:29;2.10;73.20
78297;DHT22;67555;47.660;19.622;2023-11-19T03:32:55;2.10;73.30
78297;DHT22;67555;47.660;19.622;2023-11-19T03:35:22;2.00;73.60
78297;DHT22;67555;47.660;19.622;2023-11-19T03:37:47;1.90;74.10
78297;DHT22;67555;47.660;19.622;2023-11-19T03:40:13;2.00;74.20
78297;DHT22;67555;47.660;19.622;2023-11-19T03:42:40;2.00;74.00
78297;DHT22;67555;47.660;19.622;2023-11-19T03:45:09;2.10;73.90
78297;DHT22;67555;47.660;19.622;2023-11-19T03:47:35;2.20;73.80
78297;DHT22;67555;47.660;19.622;2023-11-19T03:50:01;2.20;73.60
78297;DHT22;67555;47.660;19.622;2023-11-19T03:52:28;2.20;73.60
78297;DHT22;67555;47.660;19.622;2023-11-19T03:54:54;2.20;73.50
78297;DHT22;67555;47.660;19.622;2023-11-19T03:57:23;2.10;73.80
78297;DHT22;67555;47.660;19.622;2023-11-19T03:59:49;2.00;74.30
78297;DHT22;67555;47.660;19.622;2023-11-19T04:02:16;1.90;74.70
78297;DHT22;67555;47.660;19.622;2023-11-19T04:04:41;1.80;75.10
78297;DHT22;67555;47.660;19.622;2023-11-19T04:07:08;1.80;75.50
78297;DHT22;67555;47.660;19.622;2023-11-19T04:09:33;1.70;75.80
78297;DHT22;67555;47.660;19.622;2023-11-19T04:12:00;1.80;75.80
78297;DHT22;67555;47.660;19.622;2023-11-19T04:14:26;1.80;75.90
78297;DHT22;67555;47.660;19.622;2023-11-19T04:16:52;1.80;76.10
78297;DHT22;67555;47.660;19.622;2023-11-19T04:19:19;1.90;75.90
78297;DHT22;67555;47.660;19.622;2023-11-19T04:21:45;2.00;75.50
78297;DHT22;67555;47.660;19.622;2023-11-19T04:24:11;1.90;75.40
78297;DHT22;67555;47.660;19.622;2023-11-19T04:26:41;1.90;75.60
78297;DHT22;67555;47.660;19.622;2023-11-19T04:29:17;2.00;75.40
78297;DHT22;67555;47.660;19.622;2023-11-19T04:31:43;2.00;75.20
78297;DHT22;67555;47.660;19.622;2023-11-19T04:34:09;2.00;75.20
78297;DHT22;67555;47.660;19.622;2023-11-19T04:36:36;2.00;75.40
78297;DHT22;67555;47.660;19.622;2023-11-19T04:39:03;2.00;75.40
78297;DHT22;67555;47.660;19.622;2023-11-19T04:41:46;2.10;75.40
78297;DHT22;67555;47.660;19.622;2023-11-19T04:44:13;2.10;75.40
78297;DHT22;67555;47.660;19.622;2023-11-19T04:46:38;2.10;75.40
78297;DHT22;67555;47.660;19.622;2023-11-19T04:49:04;2.10;75.30
78297;DHT22;67555;47.660;19.622;2023-11-19T04:51:30;2.00;75.40
78297;DHT22;67555;47.660;19.622;2023-11-19T04:53:56;1.90;75.70
78297;DHT22;67555;47.660;19.622;2023-11-19T04:56:22;1.90;75.70
78297;DHT22;67555;47.660;19.622;2023-11-19T04:58:48;1.80;75.90
78297;DHT22;67555;47.660;19.622;2023-11-19T05:01:14;1.80;76.00
78297;DHT22;67555;47.660;19.622;2023-11-19T05:03:43;1.70;76.20
78297;DHT22;67555;47.660;19.622;2023-11-19T05:06:09;1.90;76.00
78297;DHT22;67555;47.660;19.622;2023-11-19T05:08:35;2.00;75.60
78297;DHT22;67555;47.660;19.622;2023-11-19T05:11:01;2.10;75.10
78297;DHT22;67555;47.660;19.622;2023-11-19T05:13:27;2.10;75.10
78297;DHT22;67555;47.660;19.622;2023-11-19T05:15:52;2.10;75.10
78297;DHT22;67555;47.660;19.622;2023-11-19T05:18:18;2.10;75.20
78297;DHT22;67555;47.660;19.622;2023-11-19T05:20:45;2.20;74.90
78297;DHT22;67555;47.660;19.622;2023-11-19T05:23:11;2.20;74.80
78297;DHT22;67555;47.660;19.622;2023-11-19T05:25:37;2.30;74.60
78297;DHT22;67555;47.660;19.622;2023-11-19T05:28:02;2.30;74.50
78297;DHT22;67555;47.660;19.622;2023-11-19T05:30:28;2.20;74.50
78297;DHT22;67555;47.660;19.622;2023-11-19T05:32:54;2.10;74.70
78297;DHT22;67555;47.660;19.622;2023-11-19T05:35:19;2.10;75.00
78297;DHT22;67555;47.660;19.622;2023-11-19T05:37:45;2.10;75.00
78297;DHT22;67555;47.660;19.622;2023-11-19T05:40:11;2.10;74.90
78297;DHT22;67555;47.660;19.622;2023-11-19T05:42:43;2.10;75.00
78297;DHT22;67555;47.660;19.622;2023-11-19T05:45:11;2.20;75.00
78297;DHT22;67555;47.660;19.622;2023-11-19T05:47:37;2.20;74.80
78297;DHT22;67555;47.660;19.622;2023-11-19T05:50:03;2.20;74.90
78297;DHT22;67555;47.660;19.622;2023-11-19T05:52:31;2.20;75.00
78297;DHT22;67555;47.660;19.622;2023-11-19T05:55:00;2.30;75.00
78297;DHT22;67555;47.660;19.622;2023-11-19T05:57:29;2.30;74.90
78297;DHT22;67555;47.660;19.622;2023-11-19T05:59:55;2.30;74.90
78297;DHT22;67555;47.660;19.622;2023-11-19T06:02:20;2.30;75.00
78297;DHT22;67555;47.660;19.622;2023-11-19T06:04:47;2.30;75.10
78297;DHT22;67555;47.660;19.622;2023-11-19T06:07:13;2.40;75.00
78297;DHT22;67555;47.660;19.622;2023-11-19T06:09:40;2.40;74.80
78297;DHT22;67555;47.660;19.622;2023-11-19T06:12:07;2.40;75.00
78297;DHT22;67555;47.660;19.622;2023-11-19T06:14:33;2.30;74.90
78297;DHT22;67555;47.660;19.622;2023-11-19T06:16:58;2.30;75.00
78297;DHT22;67555;47.660;19.622;2023-11-19T06:19:24;2.40;75.10
78297;DHT22;67555;47.660;19.622;2023-11-19T06:21:50;2.40;75.20
78297;DHT22;67555;47.660;19.622;2023-11-19T06:24:16;2.40;75.20
78297;DHT22;67555;47.660;19.622;2023-11-19T06:26:42;2.40;75.20
78297;DHT22;67555;47.660;19.622;2023-11-19T06:29:08;2.40;75.40
78297;DHT22;67555;47.660;19.622;2023-11-19T06:31:34;2.50;75.30
78297;DHT22;67555;47.660;19.622;2023-11-19T06:34:00;2.50;75.40
78297;DHT22;67555;47.660;19.622;2023-11-19T06:36:25;2.70;75.10
78297;DHT22;67555;47.660;19.622;2023-11-19T06:38:52;2.80;74.80
78297;DHT22;67555;47.660;19.622;2023-11-19T06:41:18;2.90;74.50
78297;DHT22;67555;47.660;19.622;2023-11-19T06:43:43;3.00;74.20
78297;DHT22;67555;47.660;19.622;2023-11-19T06:46:16;3.10;73.80
78297;DHT22;67555;47.660;19.622;2023-11-19T06:48:42;3.10;73.50
78297;DHT22;67555;47.660;19.622;2023-11-19T06:51:09;3.10;73.40
78297;DHT22;67555;47.660;19.622;2023-11-19T06:53:35;3.10;73.60
78297;DHT22;67555;47.660;19.622;2023-11-19T06:56:02;3.10;73.70
78297;DHT22;67555;47.660;19.622;2023-11-19T06:58:32;3.10;73.80
78297;DHT22;67555;47.660;19.622;2023-11-19T07:00:58;3.10;73.80
78297;DHT22;67555;47.660;19.622;2023-11-19T07:03:23;3.20;73.60
78297;DHT22;67555;47.660;19.622;2023-11-19T07:05:50;3.30;73.30
78297;DHT22;67555;47.660;19.622;2023-11-19T07:08:18;3.40;73.10
78297;DHT22;67555;47.660;19.622;2023-11-19T07:10:44;3.50;73.00
78297;DHT22;67555;47.660;19.622;2023-11-19T07:13:11;3.50;72.80
78297;DHT22;67555;47.660;19.622;2023-11-19T07:15:37;3.60;72.80
78297;DHT22;67555;47.660;19.622;2023-11-19T07:18:03;3.70;72.70
78297;DHT22;67555;47.660;19.622;2023-11-19T07:20:28;3.80;72.50
78297;DHT22;67555;47.660;19.622;2023-11-19T07:22:54;3.90;72.30
78297;DHT22;67555;47.660;19.622;2023-11-19T07:25:22;3.90;72.40
78297;DHT22;67555;47.660;19.622;2023-11-19T07:27:48;4.00;72.50
78297;DHT22;67555;47.660;19.622;2023-11-19T07:30:14;4.10;72.30
78297;DHT22;67555;47.660;19.622;2023-11-19T07:32:40;4.30;72.10
78297;DHT22;67555;47.660;19.622;2023-11-19T07:35:06;4.40;71.80
78297;DHT22;67555;47.660;19.622;2023-11-19T07:37:32;4.50;71.50
78297;DHT22;67555;47.660;19.622;2023-11-19T07:39:58;4.60;71.40
78297;DHT22;67555;47.660;19.622;2023-11-19T07:42:24;4.70;71.20
78297;DHT22;67555;47.660;19.622;2023-11-19T07:44:49;4.70;71.00
78297;DHT22;67555;47.660;19.622;2023-11-19T07:47:15;4.80;70.80
78297;DHT22;67555;47.660;19.622;2023-11-19T07:49:41;4.90;70.60
78297;DHT22;67555;47.660;19.622;2023-11-19T07:52:09;4.90;70.50
78297;DHT22;67555;47.660;19.622;2023-11-19T07:54:35;5.00;70.30
78297;DHT22;67555;47.660;19.622;2023-11-19T07:57:00;5.00;70.10
78297;DHT22;67555;47.660;19.622;2023-11-19T07:59:35;5.00;70.00
78297;DHT22;67555;47.660;19.622;2023-11-19T08:02:01;5.00;70.00
78297;DHT22;67555;47.660;19.622;2023-11-19T08:04:27;5.10;69.90
78297;DHT22;67555;47.660;19.622;2023-11-19T08:06:53;5.10;69.80
78297;DHT22;67555;47.660;19.622;2023-11-19T08:09:18;5.20;69.70
78297;DHT22;67555;47.660;19.622;2023-11-19T08:11:44;5.30;69.50
78297;DHT22;67555;47.660;19.622;2023-11-19T08:14:11;5.30;69.30
78297;DHT22;67555;47.660;19.622;2023-11-19T08:16:39;5.50;69.20
78297;DHT22;67555;47.660;19.622;2023-11-19T08:19:05;5.50;69.10
78297;DHT22;67555;47.660;19.622;2023-11-19T08:21:30;5.50;69.00
78297;DHT22;67555;47.660;19.622;2023-11-19T08:23:56;5.50;69.00
78297;DHT22;67555;47.660;19.622;2023-11-19T08:26:22;5.60;68.90
78297;DHT22;67555;47.660;19.622;2023-11-19T08:28:47;5.60;68.90
78297;DHT22;67555;47.660;19.622;2023-11-19T08:31:13;5.70;68.80
78297;DHT22;67555;47.660;19.622;2023-11-19T08:33:39;5.80;68.60
78297;DHT22;67555;47.660;19.622;2023-11-19T08:36:05;5.90;68.50
78297;DHT22;67555;47.660;19.622;2023-11-19T08:38:31;6.00;68.50
78297;DHT22;67555;47.660;19.622;2023-11-19T08:40:57;5.90;68.40
78297;DHT22;67555;47.660;19.622;2023-11-19T08:43:26;6.00;68.30
78297;DHT22;67555;47.660;19.622;2023-11-19T08:45:51;6.00;68.30
78297;DHT22;67555;47.660;19.622;2023-11-19T08:48:17;6.00;68.30
78297;DHT22;67555;47.660;19.622;2023-11-19T08:50:43;6.10;68.20
78297;DHT22;67555;47.660;19.622;2023-11-19T08:53:08;6.10;68.20
78297;DHT22;67555;47.660;19.622;2023-11-19T08:55:34;6.10;68.40
78297;DHT22;67555;47.660;19.622;2023-11-19T08:58:00;6.20;68.50
78297;DHT22;67555;47.660;19.622;2023-11-19T09:00:26;6.30;68.30
78297;DHT22;67555;47.660;19.622;2023-11-19T09:02:52;6.40;68.10
78297;DHT22;67555;47.660;19.622;2023-11-19T09:05:18;6.50;67.90
78297;DHT22;67555;47.660;19.622;2023-11-19T09:07:43;6.60;67.80
78297;DHT22;67555;47.660;19.622;2023-11-19T09:10:09;6.60;67.60
78297;DHT22;67555;47.660;19.622;2023-11-19T09:12:37;6.70;67.50
78297;DHT22;67555;47.660;19.622;2023-11-19T09:15:03;6.70;67.50
78297;DHT22;67555;47.660;19.622;2023-11-19T09:17:28;6.80;67.40
78297;DHT22;67555;47.660;19.622;2023-11-19T09:19:54;6.80;67.40
78297;DHT22;67555;47.660;19.622;2023-11-19T09:22:20;6.80;67.40
78297;DHT22;67555;47.660;19.622;2023-11-19T09:24:45;6.90;67.30
78297;DHT22;67555;47.660;19.622;2023-11-19T09:27:11;6.90;67.20
78297;DHT22;67555;47.660;19.622;2023-11-19T09:29:37;6.90;67.00
78297;DHT22;67555;47.660;19.622;2023-11-19T09:32:03;7.00;66.90
78297;DHT22;67555;47.660;19.622;2023-11-19T09:34:28;7.00;66.90
78297;DHT22;67555;47.660;19.622;2023-11-19T09:36:54;6.90;66.80
78297;DHT22;67555;47.660;19.622;2023-11-19T09:39:20;6.90;66.70
78297;DHT22;67555;47.660;19.622;2023-11-19T09:41:46;6.90;66.90
78297;DHT22;67555;47.660;19.622;2023-11-19T09:44:12;6.90;66.80
78297;DHT22;67555;47.660;19.622;2023-11-19T09:46:41;6.90;66.70
78297;DHT22;67555;47.660;19.622;2023-11-19T09:49:08;7.00;66.70
78297;DHT22;67555;47.660;19.622;2023-11-19T09:51:38;7.00;66.60
78297;DHT22;67555;47.660;19.622;2023-11-19T09:54:04;7.00;66.50
78297;DHT22;67555;47.660;19.622;2023-11-19T09:56:30;7.00;66.50
78297;DHT22;67555;47.660;19.622;2023-11-19T09:58:56;7.00;66.50
78297;DHT22;67555;47.660;19.622;2023-11-19T10:01:22;7.00;66.50
78297;DHT22;67555;47.660;19.622;2023-11-19T10:03:48;7.00;66.50
78297;DHT22;67555;47.660;19.622;2023-11-19T10:06:15;7.00;66.50
78297;DHT22;67555;47.660;19.622;2023-11-19T10:08:42;7.10;66.50
78297;DHT22;67555;47.660;19.622;2023-11-19T10:11:09;7.10;66.40
78297;DHT22;67555;47.660;19.622;2023-11-19T10:13:38;7.20;66.40
78297;DHT22;67555;47.660;19.622;2023-11-19T10:16:08;7.20;66.30
78297;DHT22;67555;47.660;19.622;2023-11-19T10:18:34;7.10;66.30
78297;DHT22;67555;47.660;19.622;2023-11-19T10:21:04;7.10;66.40
78297;DHT22;67555;47.660;19.622;2023-11-19T10:23:30;7.10;66.50
78297;DHT22;67555;47.660;19.622;2023-11-19T10:26:03;7.00;66.50
78297;DHT22;67555;47.660;19.622;2023-11-19T10:28:39;7.00;66.40
78297;DHT22;67555;47.660;19.622;2023-11-19T10:31:06;7.00;66.50
78297;DHT22;67555;47.660;19.622;2023-11-19T10:33:32;7.00;66.50
78297;DHT22;67555;47.660;19.622;2023-11-19T10:35:58;7.00;66.50
78297;DHT22;67555;47.660;19.622;2023-11-19T10:38:25;6.90;66.70
78297;DHT22;67555;47.660;19.622;2023-11-19T10:40:52;6.80;67.00
78297;DHT22;67555;47.660;19.622;2023-11-19T10:43:23;6.80;67.00
78297;DHT22;67555;47.660;19.622;2023-11-19T10:45:49;6.80;67.00
78297;DHT22;67555;47.660;19.622;2023-11-19T10:48:15;6.80;66.90
78297;DHT22;67555;47.660;19.622;2023-11-19T10:50:43;6.90;66.90
78297;DHT22;67555;47.660;19.622;2023-11-19T10:53:12;6.90;66.90
78297;DHT22;67555;47.660;19.622;2023-11-19T10:55:39;6.90;66.80
78297;DHT22;67555;47.660;19.622;2023-11-19T11:00:45;6.90;67.00
78297;DHT22;67555;47.660;19.622;2023-11-19T11:03:17;7.00;66.90
78297;DHT22;67555;47.660;19.622;2023-11-19T11:05:43;6.90;67.00
78297;DHT22;67555;47.660;19.622;2023-11-19T11:08:13;7.00;66.80
78297;DHT22;67555;47.660;19.622;2023-11-19T11:10:53;7.00;66.80
78297;DHT22;67555;47.660;19.622;2023-11-19T11:13:19;7.00;66.70
78297;DHT22;67555;47.660;19.622;2023-11-19T11:15:45;7.00;66.70
78297;DHT22;67555;47.660;19.622;2023-11-19T11:18:12;7.00;66.70
78297;DHT22;67555;47.660;19.622;2023-11-19T11:20:39;7.00;66.70
78297;DHT22;67555;47.660;19.622;2023-11-19T11:28:56;7.00;66.80
78297;DHT22;67555;47.660;19.622;2023-11-19T11:34:24;7.00;66.80
78297;DHT22;67555;47.660;19.622;2023-11-19T11:39:35;7.00;66.80
78297;DHT22;67555;47.660;19.622;2023-11-19T11:50:17;6.90;67.10
78297;DHT22;67555;47.660;19.622;2023-11-19T11:57:54;7.00;67.00
78297;DHT22;67555;47.660;19.622;2023-11-19T12:00:27;7.00;67.10
78297;DHT22;67555;47.660;19.622;2023-11-19T12:02:56;7.00;67.10
78297;DHT22;67555;47.660;19.622;2023-11-19T12:05:23;7.00;67.30
78297;DHT22;67555;47.660;19.622;2023-11-19T12:08:02;7.00;67.50
78297;DHT22;67555;47.660;19.622;2023-11-19T12:10:32;7.00;67.60
78297;DHT22;67555;47.660;19.622;2023-11-19T12:13:05;7.00;67.60
78297;DHT22;67555;47.660;19.622;2023-11-19T12:15:33;7.00;67.50
78297;DHT22;67555;47.660;19.622;2023-11-19T12:18:19;7.00;67.50
78297;DHT22;67555;47.660;19.622;2023-11-19T12:20:47;7.10;67.40
78297;DHT22;67555;47.660;19.622;2023-11-19T12:23:14;7.10;67.50
78297;DHT22;67555;47.660;19.622;2023-11-19T12:25:40;7.00;67.60
78297;DHT22;67555;47.660;19.622;2023-11-19T12:28:12;7.00;67.60
78297;DHT22;67555;47.660;19.622;2023-11-19T12:30:38;7.00;67.80
78297;DHT22;67555;47.660;19.622;2023-11-19T12:33:08;7.00;67.80
78297;DHT22;67555;47.660;19.622;2023-11-19T12:35:42;7.10;67.80
78297;DHT22;67555;47.660;19.622;2023-11-19T12:38:21;7.10;67.70
78297;DHT22;67555;47.660;19.622;2023-11-19T12:41:02;7.10;67.80
78297;DHT22;67555;47.660;19.622;2023-11-19T12:43:28;7.10;67.80
78297;DHT22;67555;47.660;19.622;2023-11-19T12:45:54;7.10;67.70
78297;DHT22;67555;47.660;19.622;2023-11-19T12:48:20;7.20;67.60
78297;DHT22;67555;47.660;19.622;2023-11-19T12:50:57;7.20;67.50
78297;DHT22;67555;47.660;19.622;2023-11-19T12:53:24;7.30;67.20
78297;DHT22;67555;47.660;19.622;2023-11-19T12:55:54;7.40;67.20
78297;DHT22;67555;47.660;19.622;2023-11-19T12:58:35;7.50;67.00
78297;DHT22;67555;47.660;19.622;2023-11-19T13:01:06;7.50;66.80
78297;DHT22;67555;47.660;19.622;2023-11-19T13:03:34;7.70;66.60
78297;DHT22;67555;47.660;19.622;2023-11-19T13:06:13;7.70;66.50
78297;DHT22;67555;47.660;19.622;2023-11-19T13:08:42;7.60;66.50
78297;DHT22;67555;47.660;19.622;2023-11-19T13:11:12;7.60;66.50
78297;DHT22;67555;47.660;19.622;2023-11-19T13:14:01;7.70;66.40
78297;DHT22;67555;47.660;19.622;2023-11-19T13:16:30;7.70;66.30
78297;DHT22;67555;47.660;19.622;2023-11-19T13:18:56;7.60;66.30
78297;DHT22;67555;47.660;19.622;2023-11-19T13:21:23;7.60;66.40
78297;DHT22;67555;47.660;19.622;2023-11-19T13:23:48;7.50;66.50
78297;DHT22;67555;47.660;19.622;2023-11-19T13:26:14;7.50;66.50
78297;DHT22;67555;47.660;19.622;2023-11-19T13:28:40;7.40;66.70
78297;DHT22;67555;47.660;19.622;2023-11-19T13:31:06;7.40;66.80
78297;DHT22;67555;47.660;19.622;2023-11-19T13:33:32;7.40;66.80
78297;DHT22;67555;47.660;19.622;2023-11-19T13:35:57;7.30;66.80
78297;DHT22;67555;47.660;19.622;2023-11-19T13:38:23;7.20;66.90
78297;DHT22;67555;47.660;19.622;2023-11-19T13:40:52;7.20;67.00
78297;DHT22;67555;47.660;19.622;2023-11-19T13:43:18;7.10;67.10
78297;DHT22;67555;47.660;19.622;2023-11-19T13:45:43;7.00;67.20
78297;DHT22;67555;47.660;19.622;2023-11-19T13:48:09;7.00;67.40
78297;DHT22;67555;47.660;19.622;2023-11-19T13:50:35;7.00;67.40
78297;DHT22;67555;47.660;19.622;2023-11-19T13:53:00;7.00;67.40
78297;DHT22;67555;47.660;19.622;2023-11-19T13:55:26;7.00;67.50
78297;DHT22;67555;47.660;19.622;2023-11-19T13:57:52;6.90;67.80
78297;DHT22;67555;47.660;19.622;2023-11-19T14:00:18;6.90;67.90
78297;DHT22;67555;47.660;19.622;2023-11-19T14:02:49;6.90;67.90
78297;DHT22;67555;47.660;19.622;2023-11-19T14:05:15;7.00;67.90
78297;DHT22;67555;47.660;19.622;2023-11-19T14:07:46;6.90;68.00
78297;DHT22;67555;47.660;19.622;2023-11-19T14:10:14;6.90;68.20
78297;DHT22;67555;47.660;19.622;2023-11-19T14:12:41;6.90;68.40
78297;DHT22;67555;47.660;19.622;2023-11-19T14:15:08;6.90;68.40
78297;DHT22;67555;47.660;19.622;2023-11-19T14:17:35;7.00;68.40
78297;DHT22;67555;47.660;19.622;2023-11-19T14:20:02;7.00;68.40
78297;DHT22;67555;47.660;19.622;2023-11-19T14:22:38;7.00;68.40
78297;DHT22;67555;47.660;19.622;2023-11-19T14:25:04;7.00;68.50
78297;DHT22;67555;47.660;19.622;2023-11-19T14:27:30;7.00;68.50
78297;DHT22;67555;47.660;19.622;2023-11-19T14:29:56;7.00;68.50
78297;DHT22;67555;47.660;19.622;2023-11-19T14:32:25;7.00;68.60
78297;DHT22;67555;47.660;19.622;2023-11-19T14:34:52;7.00;68.70
78297;DHT22;67555;47.660;19.622;2023-11-19T14:37:17;7.00;68.80
78297;DHT22;67555;47.660;19.622;2023-11-19T14:39:43;7.00;69.00
78297;DHT22;67555;47.660;19.622;2023-11-19T14:42:09;7.00;69.00
78297;DHT22;67555;47.660;19.622;2023-11-19T14:44:36;6.90;69.10
78297;DHT22;67555;47.660;19.622;2023-11-19T14:47:02;6.90;69.20
78297;DHT22;67555;47.660;19.622;2023-11-19T14:49:28;6.90;69.20
78297;DHT22;67555;47.660;19.622;2023-11-19T14:51:53;6.90;69.40
78297;DHT22;67555;47.660;19.622;2023-11-19T14:54:20;6.90;69.50
78297;DHT22;67555;47.660;19.622;2023-11-19T14:56:46;6.90;69.50
78297;DHT22;67555;47.660;19.622;2023-11-19T14:59:12;6.90;69.40
78297;DHT22;67555;47.660;19.622;2023-11-19T15:01:37;6.90;69.40
78297;DHT22;67555;47.660;19.622;2023-11-19T15:04:03;6.90;69.50
78297;DHT22;67555;47.660;19.622;2023-11-19T15:06:29;6.80;69.60
78297;DHT22;67555;47.660;19.622;2023-11-19T15:08:56;6.90;69.50
78297;DHT22;67555;47.660;19.622;2023-11-19T15:11:22;6.90;69.60
78297;DHT22;67555;47.660;19.622;2023-11-19T15:13:48;6.80;69.70
78297;DHT22;67555;47.660;19.622;2023-11-19T15:16:14;6.80;69.90
78297;DHT22;67555;47.660;19.622;2023-11-19T15:18:42;6.80;70.00
78297;DHT22;67555;47.660;19.622;2023-11-19T15:21:08;6.80;69.90
78297;DHT22;67555;47.660;19.622;2023-11-19T15:23:34;6.80;70.00
78297;DHT22;67555;47.660;19.622;2023-11-19T15:26:00;6.80;70.10
78297;DHT22;67555;47.660;19.622;2023-11-19T15:28:25;6.80;70.20
78297;DHT22;67555;47.660;19.622;2023-11-19T15:30:51;6.80;70.20
78297;DHT22;67555;47.660;19.622;2023-11-19T15:33:17;6.80;70.40
78297;DHT22;67555;47.660;19.622;2023-11-19T15:35:42;6.80;70.50
78297;DHT22;67555;47.660;19.622;2023-11-19T15:38:08;6.80;70.60
78297;DHT22;67555;47.660;19.622;2023-11-19T15:40:36;6.80;70.60
78297;DHT22;67555;47.660;19.622;2023-11-19T15:43:21;6.80;70.50
78297;DHT22;67555;47.660;19.622;2023-11-19T15:45:48;6.90;70.40
78297;DHT22;67555;47.660;19.622;2023-11-19T15:48:13;6.90;70.30
78297;DHT22;67555;47.660;19.622;2023-11-19T15:50:39;6.90;70.30
78297;DHT22;67555;47.660;19.622;2023-11-19T15:53:05;6.90;70.20
78297;DHT22;67555;47.660;19.622;2023-11-19T15:55:30;6.90;70.30
78297;DHT22;67555;47.660;19.622;2023-11-19T15:57:56;6.90;70.20